createdAt,value
2022-08-01T00:00:09.435Z,16.61
2022-08-01T00:02:37.664Z,16.57
2022-08-01T00:05:07.414Z,16.52
2022-08-01T00:07:35.169Z,16.49
2022-08-01T00:10:02.590Z,16.52
2022-08-01T00:12:29.449Z,16.57
2022-08-01T00:14:55.852Z,16.57
2022-08-01T00:17:22.379Z,16.61
2022-08-01T00:19:49.333Z,16.59
2022-08-01T00:22:15.763Z,16.59
2022-08-01T00:24:42.172Z,16.66
2022-08-01T00:27:09.086Z,16.67
2022-08-01T00:30:10.280Z,16.64
2022-08-01T00:32:22.336Z,16.59
2022-08-01T00:34:48.719Z,16.64
2022-08-01T00:37:16.938Z,16.61
2022-08-01T00:39:43.476Z,16.58
2022-08-01T00:42:12.837Z,16.50
2022-08-01T00:44:39.871Z,16.48
2022-08-01T00:47:06.592Z,16.41
2022-08-01T00:49:33.915Z,16.40
2022-08-01T00:52:00.916Z,16.46
2022-08-01T00:54:28.085Z,16.49
2022-08-01T00:56:56.207Z,16.46
2022-08-01T00:59:23.652Z,16.45
2022-08-01T01:01:52.584Z,16.44
2022-08-01T01:04:20.778Z,16.50
2022-08-01T01:07:14.751Z,16.57
2022-08-01T01:09:59.049Z,16.64
2022-08-01T01:12:50.017Z,16.65
2022-08-01T01:15:23.968Z,16.74
2022-08-01T01:18:03.432Z,16.80
2022-08-01T01:20:37.770Z,16.82
2022-08-01T01:23:21.792Z,16.79
2022-08-01T01:25:55.489Z,16.76
2022-08-01T01:28:35.232Z,16.73
2022-08-01T01:31:03.220Z,16.73
2022-08-01T01:33:32.740Z,16.76
2022-08-01T01:36:04.583Z,16.78
2022-08-01T01:38:42.935Z,16.77
2022-08-01T01:41:12.327Z,16.76
2022-08-01T01:43:40.394Z,16.74
2022-08-01T01:46:10.364Z,16.73
2022-08-01T01:48:38.613Z,16.73
2022-08-01T01:51:06.796Z,16.70
2022-08-01T01:53:34.916Z,16.75
2022-08-01T01:56:03.327Z,16.83
2022-08-01T01:58:32.595Z,17.03
2022-08-01T02:01:02.817Z,17.11
2022-08-01T02:03:32.464Z,17.06
2022-08-01T02:06:00.648Z,17.08
2022-08-01T02:08:30.707Z,17.20
2022-08-01T02:11:18.809Z,17.31
2022-08-01T02:13:59.429Z,17.39
2022-08-01T02:16:29.910Z,17.40
2022-08-01T02:18:57.335Z,17.39
2022-08-01T02:22:02.175Z,17.45
2022-08-01T02:24:39.521Z,17.47
2022-08-01T02:27:10.958Z,17.46
2022-08-01T02:29:53.909Z,17.57
2022-08-01T02:32:58.300Z,17.78
2022-08-01T02:35:29.248Z,17.89
2022-08-01T02:37:58.139Z,17.99
2022-08-01T02:40:27.266Z,17.98
2022-08-01T02:42:57.019Z,18.12
2022-08-01T02:45:26.140Z,18.22
2022-08-01T02:47:57.357Z,18.26
2022-08-01T02:50:25.422Z,18.21
2022-08-01T02:52:53.645Z,18.05
2022-08-01T02:55:21.582Z,17.95
2022-08-01T02:57:51.750Z,17.90
2022-08-01T03:00:19.967Z,17.82
2022-08-01T03:02:49.771Z,17.82
2022-08-01T03:05:18.073Z,17.87
2022-08-01T03:07:45.955Z,17.79
2022-08-01T03:10:17.477Z,17.66
2022-08-01T03:12:46.379Z,17.57
2022-08-01T03:15:16.777Z,17.65
2022-08-01T03:17:47.143Z,17.69
2022-08-01T03:20:16.104Z,17.68
2022-08-01T03:22:45.137Z,17.79
2022-08-01T03:25:14.539Z,17.84
2022-08-01T03:27:49.529Z,17.88
2022-08-01T03:30:16.482Z,17.92
2022-08-01T03:32:43.191Z,17.91
2022-08-01T03:35:10.672Z,17.84
2022-08-01T03:38:14.749Z,17.78
2022-08-01T03:40:41.377Z,17.75
2022-08-01T03:43:30.174Z,17.80
2022-08-01T03:46:04.549Z,17.89
2022-08-01T03:48:33.858Z,18.02
2022-08-01T03:51:00.703Z,18.06
2022-08-01T03:53:30.960Z,18.19
2022-08-01T03:56:01.554Z,18.35
2022-08-01T03:58:29.084Z,18.41
2022-08-01T04:00:56.069Z,18.43
2022-08-01T04:03:24.742Z,18.53
2022-08-01T04:05:51.471Z,18.56
2022-08-01T04:08:17.920Z,18.63
2022-08-01T04:10:44.849Z,18.46
2022-08-01T04:13:11.660Z,18.49
2022-08-01T04:15:38.393Z,18.44
2022-08-01T04:18:04.808Z,18.38
2022-08-01T04:20:31.225Z,18.49
2022-08-01T04:22:58.572Z,18.41
2022-08-01T04:25:33.836Z,18.49
2022-08-01T04:28:05.402Z,18.47
2022-08-01T04:30:35.418Z,18.41
2022-08-01T04:33:06.599Z,18.50
2022-08-01T04:36:02.667Z,18.47
2022-08-01T04:38:28.153Z,18.60
2022-08-01T04:40:56.039Z,18.73
2022-08-01T04:43:23.243Z,18.85
2022-08-01T04:45:51.477Z,18.97
2022-08-01T04:48:22.624Z,19.10
2022-08-01T04:50:49.652Z,19.25
2022-08-01T04:53:17.713Z,19.44
2022-08-01T04:55:45.372Z,19.51
2022-08-01T04:58:16.142Z,19.78
2022-08-01T05:00:44.254Z,19.83
2022-08-01T05:03:11.161Z,19.69
2022-08-01T05:05:37.525Z,19.91
2022-08-01T05:08:04.118Z,20.00
2022-08-01T05:10:32.033Z,20.05
2022-08-01T05:12:58.756Z,20.27
2022-08-01T05:15:25.126Z,20.27
2022-08-01T05:17:52.041Z,20.24
2022-08-01T05:20:18.497Z,20.23
2022-08-01T05:22:44.891Z,20.23
2022-08-01T05:25:12.744Z,20.26
2022-08-01T05:27:44.962Z,20.06
2022-08-01T05:30:12.096Z,20.01
2022-08-01T05:32:39.032Z,20.12
2022-08-01T05:35:06.133Z,19.80
2022-08-01T05:37:32.908Z,20.08
2022-08-01T05:39:59.282Z,20.28
2022-08-01T05:42:25.686Z,20.40
2022-08-01T05:44:52.576Z,20.46
2022-08-01T05:47:19.267Z,20.76
2022-08-01T05:49:46.658Z,20.79
2022-08-01T05:52:13.760Z,21.76
2022-08-01T05:54:40.394Z,24.06
2022-08-01T05:57:07.162Z,24.53
2022-08-01T05:59:33.556Z,26.47
2022-08-01T06:02:01.430Z,25.28
2022-08-01T06:04:28.016Z,26.21
2022-08-01T06:06:54.394Z,27.35
2022-08-01T06:09:21.162Z,28.46
2022-08-01T06:11:47.911Z,28.31
2022-08-01T06:14:14.268Z,26.55
2022-08-01T06:16:40.724Z,26.77
2022-08-01T06:19:07.088Z,26.93
2022-08-01T06:21:33.455Z,28.58
2022-08-01T06:23:59.836Z,27.68
2022-08-01T06:26:26.499Z,28.43
2022-08-01T06:28:52.881Z,27.62
2022-08-01T06:31:19.634Z,29.29
2022-08-01T06:33:45.978Z,29.69
2022-08-01T06:36:12.953Z,30.17
2022-08-01T06:38:39.363Z,28.06
2022-08-01T06:41:05.708Z,25.90
2022-08-01T06:43:32.576Z,27.76
2022-08-01T06:45:58.979Z,28.24
2022-08-01T06:48:25.847Z,29.60
2022-08-01T06:51:08.493Z,29.15
2022-08-01T06:53:39.559Z,30.08
2022-08-01T06:56:07.924Z,31.43
2022-08-01T06:58:35.570Z,30.49
2022-08-01T07:01:03.261Z,28.59
2022-08-01T07:03:52.352Z,30.19
2022-08-01T07:06:18.699Z,31.63
2022-08-01T07:08:45.050Z,29.61
2022-08-01T07:11:11.401Z,30.51
2022-08-01T07:13:44.302Z,28.84
2022-08-01T07:16:13.258Z,27.17
2022-08-01T07:18:40.004Z,27.22
2022-08-01T07:21:06.377Z,25.30
2022-08-01T07:23:45.994Z,25.38
2022-08-01T07:26:14.121Z,26.08
2022-08-01T07:28:43.768Z,28.61
2022-08-01T07:31:10.998Z,30.09
2022-08-01T07:33:48.738Z,29.32
2022-08-01T07:36:17.455Z,30.53
2022-08-01T07:38:44.590Z,28.93
2022-08-01T07:41:11.111Z,29.42
2022-08-01T07:43:37.990Z,31.63
2022-08-01T07:46:05.275Z,31.42
2022-08-01T07:48:32.739Z,30.80
2022-08-01T07:50:59.126Z,30.90
2022-08-01T07:53:25.600Z,30.42
2022-08-01T07:55:52.659Z,32.09
2022-08-01T07:58:19.028Z,29.18
2022-08-01T08:00:45.395Z,31.46
2022-08-01T08:03:12.587Z,31.51
2022-08-01T08:05:58.123Z,30.78
2022-08-01T08:08:25.618Z,30.08
2022-08-01T08:10:52.440Z,31.53
2022-08-01T08:13:18.775Z,33.11
2022-08-01T08:15:48.507Z,29.13
2022-08-01T08:18:15.756Z,31.15
2022-08-01T08:20:42.185Z,32.33
2022-08-01T08:23:42.610Z,31.93
2022-08-01T08:26:10.820Z,32.36
2022-08-01T08:28:37.589Z,30.60
2022-08-01T08:31:04.080Z,27.70
2022-08-01T08:33:30.571Z,31.45
2022-08-01T08:35:57.366Z,31.45
2022-08-01T08:38:28.452Z,32.41
2022-08-01T08:40:57.768Z,30.36
2022-08-01T08:43:25.844Z,30.47
2022-08-01T08:45:59.064Z,30.39
2022-08-01T08:48:28.194Z,30.15
2022-08-01T08:50:56.206Z,29.86
2022-08-01T08:53:23.183Z,28.96
2022-08-01T08:55:55.855Z,30.40
2022-08-01T08:58:30.459Z,28.84
2022-08-01T09:00:58.595Z,28.03
2022-08-01T09:03:25.015Z,28.47
2022-08-01T09:05:51.403Z,28.79
2022-08-01T09:08:18.191Z,30.62
2022-08-01T09:10:44.771Z,31.20
2022-08-01T09:13:13.927Z,30.70
2022-08-01T09:15:46.745Z,29.89
2022-08-01T09:18:28.761Z,30.86
2022-08-01T09:21:19.455Z,32.02
2022-08-01T09:23:54.427Z,30.13
2022-08-01T09:26:31.505Z,30.80
2022-08-01T09:28:58.434Z,30.60
2022-08-01T09:31:38.199Z,30.32
2022-08-01T09:34:05.783Z,29.90
2022-08-01T09:36:59.726Z,28.82
2022-08-01T09:39:29.659Z,28.42
2022-08-01T09:41:58.660Z,28.95
2022-08-01T09:44:55.234Z,29.66
2022-08-01T09:47:23.772Z,31.30
2022-08-01T09:49:59.580Z,31.05
2022-08-01T09:52:28.985Z,31.90
2022-08-01T09:55:02.432Z,33.22
2022-08-01T09:57:29.786Z,32.41
2022-08-01T10:00:02.109Z,32.29
2022-08-01T10:02:39.976Z,29.48
2022-08-01T10:05:09.551Z,30.30
2022-08-01T10:07:43.532Z,32.75
2022-08-01T10:10:16.523Z,32.45
2022-08-01T10:12:45.460Z,31.12
2022-08-01T10:15:15.517Z,31.00
2022-08-01T10:17:50.294Z,31.74
2022-08-01T10:20:21.807Z,31.27
2022-08-01T10:23:00.487Z,30.73
2022-08-01T10:25:42.850Z,30.43
2022-08-01T10:28:23.849Z,31.42
2022-08-01T10:30:50.823Z,29.69
2022-08-01T10:33:49.796Z,31.06
2022-08-01T10:36:08.542Z,32.23
2022-08-01T10:38:37.227Z,31.57
2022-08-01T10:41:06.487Z,30.71
2022-08-01T10:43:35.361Z,30.07
2022-08-01T10:46:02.929Z,29.89
2022-08-01T10:48:37.541Z,32.05
2022-08-01T10:51:17.490Z,32.96
2022-08-01T10:53:54.476Z,32.02
2022-08-01T10:56:26.392Z,30.42
2022-08-01T10:59:06.577Z,31.02
2022-08-01T11:01:38.642Z,31.67
2022-08-01T11:04:16.577Z,32.03
2022-08-01T11:06:53.292Z,30.54
2022-08-01T11:09:36.043Z,33.01
2022-08-01T11:12:13.557Z,31.94
2022-08-01T11:15:17.020Z,31.36
2022-08-01T11:17:56.096Z,31.88
2022-08-01T11:20:31.917Z,30.81
2022-08-01T11:23:02.232Z,31.43
2022-08-01T11:26:03.155Z,33.54
2022-08-01T11:28:30.165Z,31.49
2022-08-01T11:31:22.769Z,32.45
2022-08-01T11:33:50.322Z,31.83
2022-08-01T11:36:36.872Z,32.41
2022-08-01T11:39:13.179Z,29.95
2022-08-01T11:41:41.520Z,28.74
2022-08-01T11:44:14.804Z,29.82
2022-08-01T11:46:57.543Z,31.47
2022-08-01T11:49:30.076Z,32.26
2022-08-01T11:52:04.162Z,32.01
2022-08-01T11:54:36.186Z,32.10
2022-08-01T11:57:12.993Z,29.74
2022-08-01T12:00:03.165Z,29.72
2022-08-01T12:02:35.446Z,30.12
2022-08-01T12:05:08.181Z,30.95
2022-08-01T12:07:37.239Z,28.63
2022-08-01T12:10:07.818Z,29.97
2022-08-01T12:12:36.339Z,29.28
2022-08-01T12:15:09.949Z,29.47
2022-08-01T12:17:39.739Z,28.35
2022-08-01T12:20:20.148Z,27.25
2022-08-01T12:22:47.115Z,27.02
2022-08-01T12:25:18.119Z,27.24
2022-08-01T12:27:46.287Z,27.49
2022-08-01T12:30:15.651Z,27.90
2022-08-01T12:32:44.937Z,27.65
2022-08-01T12:35:18.522Z,28.45
2022-08-01T12:37:49.547Z,28.79
2022-08-01T12:40:20.812Z,28.79
2022-08-01T12:42:50.275Z,29.47
2022-08-01T12:45:21.267Z,29.14
2022-08-01T12:47:48.755Z,28.68
2022-08-01T12:50:18.014Z,29.00
2022-08-01T12:52:45.215Z,29.31
2022-08-01T12:55:33.971Z,29.46
2022-08-01T12:58:15.390Z,28.86
2022-08-01T13:00:45.113Z,29.48
2022-08-01T13:03:16.808Z,29.90
2022-08-01T13:05:43.782Z,30.68
2022-08-01T13:08:14.349Z,30.85
2022-08-01T13:10:42.694Z,29.68
2022-08-01T13:13:10.082Z,31.77
2022-08-01T13:15:41.832Z,31.47
2022-08-01T13:18:28.167Z,29.48
2022-08-01T13:21:13.158Z,29.20
2022-08-01T13:24:02.853Z,30.75
2022-08-01T13:26:47.778Z,32.76
2022-08-01T13:29:16.436Z,30.51
2022-08-01T13:31:43.319Z,30.55
2022-08-01T13:34:10.618Z,31.20
2022-08-01T13:36:38.655Z,32.27
2022-08-01T13:39:24.711Z,31.76
2022-08-01T13:41:51.359Z,30.55
2022-08-01T13:44:17.779Z,30.09
2022-08-01T13:46:49.264Z,29.94
2022-08-01T13:49:16.746Z,29.07
2022-08-01T13:51:43.641Z,30.10
2022-08-01T13:54:10.190Z,30.39
2022-08-01T13:56:37.728Z,30.47
2022-08-01T13:59:04.134Z,31.45
2022-08-01T14:01:34.254Z,29.80
2022-08-01T14:04:01.940Z,30.59
2022-08-01T14:06:28.396Z,32.37
2022-08-01T14:08:55.243Z,31.73
2022-08-01T14:11:22.089Z,31.01
2022-08-01T14:13:48.890Z,31.41
2022-08-01T14:16:17.079Z,30.49
2022-08-01T14:18:44.419Z,29.76
2022-08-01T14:21:11.316Z,30.03
2022-08-01T14:23:37.757Z,29.46
2022-08-01T14:26:11.443Z,29.53
2022-08-01T14:28:39.927Z,30.85
2022-08-01T14:31:10.080Z,31.80
2022-08-01T14:33:37.266Z,32.32
2022-08-01T14:36:20.717Z,31.77
2022-08-01T14:38:51.179Z,32.37
2022-08-01T14:41:17.595Z,31.64
2022-08-01T14:43:44.153Z,32.98
2022-08-01T14:46:11.024Z,32.29
2022-08-01T14:48:38.208Z,32.64
2022-08-01T14:51:05.113Z,32.22
2022-08-01T14:53:34.267Z,30.95
2022-08-01T14:56:02.308Z,30.79
2022-08-01T14:58:28.661Z,31.08
2022-08-01T15:00:58.654Z,30.97
2022-08-01T15:03:26.648Z,30.64
2022-08-01T15:05:53.134Z,29.46
2022-08-01T15:08:19.491Z,28.28
2022-08-01T15:10:46.378Z,28.92
2022-08-01T15:13:12.985Z,29.01
2022-08-01T15:15:39.399Z,28.48
2022-08-01T15:18:06.305Z,28.30
2022-08-01T15:20:33.753Z,27.15
2022-08-01T15:23:00.203Z,27.55
2022-08-01T15:25:26.886Z,27.78
2022-08-01T15:28:07.133Z,27.82
2022-08-01T15:30:34.468Z,28.16
2022-08-01T15:33:00.856Z,27.91
2022-08-01T15:35:27.240Z,28.76
2022-08-01T15:37:54.229Z,28.68
2022-08-01T15:40:20.581Z,28.33
2022-08-01T15:42:47.055Z,28.65
2022-08-01T15:45:46.271Z,28.19
2022-08-01T15:48:06.353Z,28.63
2022-08-01T15:50:33.376Z,28.77
2022-08-01T15:53:00.159Z,28.66
2022-08-01T15:55:26.610Z,28.31
2022-08-01T15:57:53.615Z,28.57
2022-08-01T16:00:19.996Z,27.63
2022-08-01T16:02:47.039Z,27.90
2022-08-01T16:05:14.051Z,27.96
2022-08-01T16:07:59.921Z,28.04
2022-08-01T16:10:29.131Z,27.45
2022-08-01T16:12:55.660Z,27.44
2022-08-01T16:15:22.579Z,27.34
2022-08-01T16:18:02.033Z,27.51
2022-08-01T16:20:28.800Z,27.28
2022-08-01T16:22:55.149Z,27.02
2022-08-01T16:25:21.569Z,27.34
2022-08-01T16:27:48.412Z,26.90
2022-08-01T16:30:14.793Z,26.64
2022-08-01T16:32:47.134Z,26.88
2022-08-01T16:35:18.634Z,26.80
2022-08-01T16:37:45.494Z,26.73
2022-08-01T16:40:12.262Z,26.68
2022-08-01T16:42:38.651Z,26.70
2022-08-01T16:45:08.747Z,26.60
2022-08-01T16:47:40.088Z,26.31
2022-08-01T16:50:07.296Z,23.98
2022-08-01T16:52:33.646Z,22.83
2022-08-01T16:55:10.326Z,22.71
2022-08-01T16:57:38.230Z,22.50
2022-08-01T17:00:08.755Z,22.37
2022-08-01T17:02:38.530Z,21.24
2022-08-01T17:05:07.743Z,20.15
2022-08-01T17:07:36.319Z,19.07
2022-08-01T17:10:03.616Z,18.75
2022-08-01T17:12:30.875Z,18.83
2022-08-01T17:14:57.272Z,18.86
2022-08-01T17:17:23.846Z,18.97
2022-08-01T17:19:52.602Z,19.01
2022-08-01T17:22:19.505Z,18.74
2022-08-01T17:24:46.376Z,18.80
2022-08-01T17:27:13.774Z,18.60
2022-08-01T17:29:43.513Z,18.73
2022-08-01T17:32:11.298Z,18.91
2022-08-01T17:34:39.832Z,19.12
2022-08-01T17:37:06.610Z,19.00
2022-08-01T17:39:39.258Z,19.09
2022-08-01T17:42:08.222Z,18.99
2022-08-01T17:44:35.383Z,18.92
2022-08-01T17:47:02.082Z,19.00
2022-08-01T17:49:53.225Z,19.04
2022-08-01T17:52:15.215Z,18.99
2022-08-01T17:54:41.754Z,19.05
2022-08-01T17:57:08.842Z,19.06
2022-08-01T17:59:36.170Z,18.65
2022-08-01T18:02:02.764Z,18.47
2022-08-01T18:04:33.746Z,18.72
2022-08-01T18:07:00.846Z,18.94
2022-08-01T18:09:32.964Z,18.91
2022-08-01T18:12:02.113Z,18.79
2022-08-01T18:14:32.621Z,18.36
2022-08-01T18:17:11.327Z,18.52
2022-08-01T18:19:38.641Z,18.55
2022-08-01T18:22:05.964Z,18.44
2022-08-01T18:24:52.720Z,18.57
2022-08-01T18:27:19.135Z,17.79
2022-08-01T18:29:48.323Z,17.73
2022-08-01T18:32:15.102Z,17.89
2022-08-01T18:34:42.060Z,18.10
2022-08-01T18:37:10.155Z,18.46
2022-08-01T18:39:39.409Z,18.55
2022-08-01T18:42:06.290Z,18.55
2022-08-01T18:44:33.586Z,18.60
2022-08-01T18:47:00.029Z,18.56
2022-08-01T18:49:26.448Z,18.55
2022-08-01T18:51:54.668Z,18.60
2022-08-01T18:54:22.811Z,18.24
2022-08-01T18:56:49.712Z,18.20
2022-08-01T18:59:16.540Z,18.26
2022-08-01T19:01:43.446Z,18.22
2022-08-01T19:04:11.298Z,18.19
2022-08-01T19:06:38.679Z,18.41
2022-08-01T19:09:07.201Z,18.19
2022-08-01T19:11:34.885Z,18.19
2022-08-01T19:14:02.196Z,18.34
2022-08-01T19:16:29.000Z,18.20
2022-08-01T19:18:55.955Z,18.22
2022-08-01T19:21:23.091Z,18.10
2022-08-01T19:24:08.530Z,18.28
2022-08-01T19:26:35.979Z,18.31
2022-08-01T19:29:10.026Z,18.14
2022-08-01T19:31:39.551Z,18.27
2022-08-01T19:34:07.425Z,17.80
2022-08-01T19:36:35.034Z,17.78
2022-08-01T19:39:01.840Z,18.02
2022-08-01T19:41:29.783Z,18.19
2022-08-01T19:43:58.651Z,17.79
2022-08-01T19:46:25.400Z,18.14
2022-08-01T19:48:54.066Z,18.34
2022-08-01T19:51:22.670Z,18.13
2022-08-01T19:54:04.131Z,17.99
2022-08-01T19:56:37.583Z,17.98
2022-08-01T19:59:04.851Z,18.28
2022-08-01T20:01:32.146Z,17.79
2022-08-01T20:04:03.857Z,17.77
2022-08-01T20:06:31.108Z,17.75
2022-08-01T20:08:58.410Z,17.73
2022-08-01T20:11:26.162Z,17.89
2022-08-01T20:13:52.953Z,17.82
2022-08-01T20:16:19.352Z,17.81
2022-08-01T20:18:46.215Z,17.91
2022-08-01T20:21:13.446Z,17.92
2022-08-01T20:23:41.331Z,17.75
2022-08-01T20:26:09.609Z,17.85
2022-08-01T20:28:41.656Z,17.77
2022-08-01T20:31:10.174Z,17.77
2022-08-01T20:33:43.027Z,17.54
2022-08-01T20:36:12.362Z,17.54
2022-08-01T20:38:56.645Z,17.50
2022-08-01T20:41:24.754Z,17.43
2022-08-01T20:43:57.572Z,17.42
2022-08-01T20:46:27.914Z,17.31
2022-08-01T20:48:55.934Z,17.38
2022-08-01T20:51:27.167Z,17.19
2022-08-01T20:53:54.588Z,17.03
2022-08-01T20:56:57.071Z,17.22
2022-08-01T20:59:39.601Z,17.12
2022-08-01T21:02:28.817Z,17.11
2022-08-01T21:04:57.875Z,16.92
2022-08-01T21:07:31.509Z,16.89
2022-08-01T21:10:08.985Z,16.88
2022-08-01T21:12:45.183Z,17.00
2022-08-01T21:15:22.875Z,17.09
2022-08-01T21:18:03.262Z,17.24
2022-08-01T21:20:32.688Z,17.20
2022-08-01T21:23:10.046Z,17.14
2022-08-01T21:25:36.854Z,17.14
2022-08-01T21:28:04.588Z,17.12
2022-08-01T21:30:35.573Z,17.18
2022-08-01T21:33:04.434Z,17.36
2022-08-01T21:35:32.520Z,17.37
2022-08-01T21:38:01.946Z,17.24
2022-08-01T21:40:31.971Z,17.44
2022-08-01T21:43:01.035Z,17.26
2022-08-01T21:45:28.872Z,17.50
2022-08-01T21:47:57.032Z,17.34
2022-08-01T21:50:24.203Z,17.30
2022-08-01T21:53:02.719Z,17.29
2022-08-01T21:56:15.057Z,17.22
2022-08-01T21:58:57.071Z,17.36
2022-08-01T22:01:51.575Z,17.17
2022-08-01T22:04:26.819Z,17.04
2022-08-01T22:06:54.323Z,17.09
2022-08-01T22:09:21.947Z,16.97
2022-08-01T22:12:01.309Z,16.99
2022-08-01T22:14:29.899Z,16.99
2022-08-01T22:16:59.115Z,16.98
2022-08-01T22:19:32.730Z,16.72
2022-08-01T22:22:44.703Z,16.56
2022-08-01T22:25:00.016Z,16.50
2022-08-01T22:28:08.096Z,16.74
2022-08-01T22:30:15.610Z,16.65
2022-08-01T22:32:43.351Z,16.38
2022-08-01T22:35:14.343Z,16.55
2022-08-01T22:37:57.496Z,16.71
2022-08-01T22:40:24.138Z,16.75
2022-08-01T22:42:59.942Z,16.80
2022-08-01T22:45:44.784Z,16.63
2022-08-01T22:48:11.514Z,16.70
2022-08-01T22:50:56.280Z,16.70
2022-08-01T22:53:53.587Z,16.71
2022-08-01T22:56:21.452Z,16.34
2022-08-01T22:58:48.700Z,16.08
2022-08-01T23:01:21.885Z,15.90
2022-08-01T23:03:50.599Z,15.97
2022-08-01T23:06:24.236Z,16.13
2022-08-01T23:08:50.936Z,16.09
2022-08-01T23:11:21.129Z,16.23
2022-08-01T23:13:50.892Z,16.09
2022-08-01T23:16:17.835Z,16.20
2022-08-01T23:18:46.236Z,16.14
2022-08-01T23:21:13.696Z,15.97
2022-08-01T23:23:40.148Z,16.16
2022-08-01T23:26:07.067Z,16.21
2022-08-01T23:28:34.202Z,16.12
2022-08-01T23:31:02.409Z,15.90
2022-08-01T23:33:28.845Z,16.05
2022-08-01T23:35:55.903Z,16.10
2022-08-01T23:38:22.356Z,16.08
2022-08-01T23:40:50.001Z,16.16
2022-08-01T23:43:17.769Z,16.15
2022-08-01T23:46:04.398Z,16.15
2022-08-01T23:48:32.847Z,16.23
2022-08-01T23:50:59.795Z,16.24
2022-08-01T23:53:30.626Z,16.11
2022-08-01T23:55:58.628Z,16.12
2022-08-01T23:58:25.416Z,15.78
